SBGL/GIG METAR and TAF weather

Enter ICAO airport designator
Station Type Date Time Source
SBGL METAR 2020/06/02 17:00 UTC NOAA

SBGL 021700Z 21012KT CAVOK 26/18 Q1014


Station Type Date Time Source
SBGL Decoded METAR 2020/06/02 17:00 UTC NOAA

Galeao, Brazil (SBGL) 22-49S 043-15W 42M
Jun 02, 2020 - 01:00 PM EDT / 2020.06.02 1700 UTC
Wind: from the SSW (210 degrees) at 14 MPH (12 KT):0
Visibility: greater than 7 mile(s):0
Temperature: 78 F (26 C)
Dew Point: 64 F (18 C)
Relative Humidity: 61%
Pressure (altimeter): 29.94 in. Hg (1014 hPa)
ob: SBGL 021700Z 21012KT CAVOK 26/18 Q1014
cycle: 17

Station Type Date Time Source
SBGL TAF 2020/06/02 18:42 UTC NOAA

TAF SBGL 021500Z 0218/0324 06005KT CAVOK TX28/0218Z TN16/0307Z
BECMG 0219/0221 11005KT
BECMG 0311/0313 03005KT
BECMG 0319/0321 12005KT
RMK PDY

Example: see airport list